Time;durP1;ratioP1;P1;durP2;ratioP2;P2;SDS_P1;SDS_P2;PMS_P1;PMS_P2;Temp;Humidity;BMP_temperature;BMP_pressure;BME280_temperature;BME280_humidity;BME280_pressure;Samples;Min_cycle;Max_cycle;Signal;HPM_P1;HPM_P2
2023/01/03 00:01:15;;;;;;;9.60;2.78;;;;;;;;;;5032116;28;20481;-64
2023/01/03 00:03:42;;;;;;;11.23;2.30;;;;;;;;;;5033126;28;20029;-63
2023/01/03 00:06:17;;;;;;;12.05;2.03;;;;;;;;;;5032860;28;20096;-63
2023/01/03 00:08:43;;;;;;;6.85;1.73;;;;;;;;;;5033497;28;20528;-63
2023/01/03 00:11:13;;;;;;;13.90;2.60;;;;;;;;;;5032955;28;20096;-63
2023/01/03 00:13:39;;;;;;;10.55;2.10;;;;;;;;;;5033177;28;20036;-63
2023/01/03 00:16:05;;;;;;;8.15;2.13;;;;;;;;;;5032330;28;20029;-63
2023/01/03 00:18:31;;;;;;;12.63;2.53;;;;;;;;;;5032943;28;20025;-63
2023/01/03 00:21:02;;;;;;;13.48;2.08;;;;;;;;;;5033013;28;20029;-63
2023/01/03 00:23:28;;;;;;;7.55;1.55;;;;;;;;;;5032836;28;20127;-63
2023/01/03 00:25:54;;;;;;;10.38;1.90;;;;;;;;;;5032735;28;20025;-63
2023/01/03 00:28:21;;;;;;;4.18;1.90;;;;;;;;;;5032697;28;20394;-63
2023/01/03 00:30:47;;;;;;;10.23;2.20;;;;;;;;;;5032793;28;20036;-63
2023/01/03 00:33:13;;;;;;;13.50;2.38;;;;;;;;;;5032662;28;20390;-63
2023/01/03 00:35:39;;;;;;;10.43;2.10;;;;;;;;;;5032639;28;20049;-63
2023/01/03 00:38:05;;;;;;;6.13;1.58;;;;;;;;;;5032713;28;20405;-63
2023/01/03 00:40:31;;;;;;;12.85;2.53;;;;;;;;;;5032774;28;20022;-63
2023/01/03 00:45:42;;;;;;;15.23;2.10;;;;;;;;;;5032491;28;20076;-63
2023/01/03 00:48:08;;;;;;;9.55;2.05;;;;;;;;;;5032642;28;20056;-63
2023/01/03 00:50:36;;;;;;;8.15;2.20;;;;;;;;;;5032261;28;20037;-63
2023/01/03 00:53:02;;;;;;;14.30;1.83;;;;;;;;;;5032554;28;20057;-63
2023/01/03 00:55:28;;;;;;;10.43;1.83;;;;;;;;;;5032435;28;20034;-63
2023/01/03 00:57:54;;;;;;;10.77;2.55;;;;;;;;;;5032110;28;20501;-63
2023/01/03 01:00:21;;;;;;;8.02;1.80;;;;;;;;;;5032304;28;20116;-63
2023/01/03 01:02:47;;;;;;;12.55;2.15;;;;;;;;;;5032592;28;20029;-63
2023/01/03 01:05:13;;;;;;;9.20;1.38;;;;;;;;;;5032293;28;20021;-63
2023/01/03 01:07:39;;;;;;;8.88;1.67;;;;;;;;;;5032466;28;20087;-63
2023/01/03 01:10:05;;;;;;;10.48;2.72;;;;;;;;;;5035136;28;20053;-63
2023/01/03 01:12:31;;;;;;;9.68;1.85;;;;;;;;;;5036006;28;20420;-63
2023/01/03 01:14:57;;;;;;;20.35;4.55;;;;;;;;;;5035490;28;20406;-63
2023/01/03 01:17:26;;;;;;;13.27;2.20;;;;;;;;;;5035767;28;20137;-63
2023/01/03 01:19:52;;;;;;;16.63;2.20;;;;;;;;;;5036097;28;20390;-63
2023/01/03 01:22:18;;;;;;;10.80;1.98;;;;;;;;;;5036089;28;20037;-63
2023/01/03 01:24:45;;;;;;;7.95;2.10;;;;;;;;;;5026428;28;20532;-63
2023/01/03 01:27:11;;;;;;;14.55;2.08;;;;;;;;;;5035582;28;20056;-63
2023/01/03 01:29:37;;;;;;;8.43;2.05;;;;;;;;;;5035829;28;20093;-63
2023/01/03 01:32:04;;;;;;;10.07;2.05;;;;;;;;;;5035922;28;20022;-63
2023/01/03 01:34:30;;;;;;;8.52;2.10;;;;;;;;;;5035643;28;20049;-63
2023/01/03 01:36:57;;;;;;;19.67;2.63;;;;;;;;;;5036142;28;20429;-64
2023/01/03 01:39:24;;;;;;;18.83;1.90;;;;;;;;;;5035913;28;20029;-63
2023/01/03 01:44:54;;;;;;;11.93;2.00;;;;;;;;;;5035602;28;20053;-63
2023/01/03 01:47:32;;;;;;;13.88;1.90;;;;;;;;;;5035647;28;20029;-63
2023/01/03 01:50:00;;;;;;;12.50;2.08;;;;;;;;;;5035716;28;20041;-63
2023/01/03 01:52:28;;;;;;;7.82;1.95;;;;;;;;;;5035556;28;20021;-63
2023/01/03 01:54:54;;;;;;;14.43;2.60;;;;;;;;;;5035753;28;20053;-63
2023/01/03 01:57:22;;;;;;;14.07;1.80;;;;;;;;;;5035048;28;20037;-63
2023/01/03 01:59:48;;;;;;;21.42;2.63;;;;;;;;;;5035660;28;20060;-63
2023/01/03 02:02:18;;;;;;;11.40;2.47;;;;;;;;;;5035222;28;20444;-63
2023/01/03 02:04:46;;;;;;;13.73;2.58;;;;;;;;;;5035630;28;20409;-63
2023/01/03 02:07:12;;;;;;;16.83;2.92;;;;;;;;;;5035319;28;20032;-63
2023/01/03 02:09:38;;;;;;;17.80;2.47;;;;;;;;;;5035254;28;20437;-63
2023/01/03 02:15:03;;;;;;;17.63;2.38;;;;;;;;;;5035462;28;20056;-63
2023/01/03 02:17:56;;;;;;;14.38;2.50;;;;;;;;;;5035124;28;20405;-63
2023/01/03 02:20:23;;;;;;;13.18;1.95;;;;;;;;;;5032029;28;20042;-63
2023/01/03 02:22:51;;;;;;;10.18;2.17;;;;;;;;;;5016337;28;20105;-64
2023/01/03 02:25:33;;;;;;;13.73;1.92;;;;;;;;;;5032326;28;20569;-63
2023/01/03 02:28:08;;;;;;;9.43;2.83;;;;;;;;;;5032929;28;20041;-63
2023/01/03 02:30:40;;;;;;;14.07;2.28;;;;;;;;;;5032716;28;20045;-63
2023/01/03 02:33:07;;;;;;;;;;;;;;;;;;5033211;28;20037;-64
2023/01/03 02:35:41;;;;;;;14.73;3.67;;;;;;;;;;5032537;28;19923;-64
2023/01/03 02:38:28;;;;;;;13.60;2.20;;;;;;;;;;5032644;28;20504;-64
2023/01/03 02:40:57;;;;;;;18.50;2.33;;;;;;;;;;5032390;28;20140;-63
2023/01/03 02:43:26;;;;;;;13.27;3.85;;;;;;;;;;5032344;28;20489;-63
2023/01/03 02:46:01;;;;;;;12.52;2.72;;;;;;;;;;5032435;28;20432;-63
2023/01/03 02:48:36;;;;;;;16.48;2.58;;;;;;;;;;5032386;28;20028;-63
2023/01/03 02:51:05;;;;;;;13.77;2.13;;;;;;;;;;5032272;28;20573;-63
2023/01/03 02:53:34;;;;;;;19.02;2.70;;;;;;;;;;5032219;28;20040;-63
2023/01/03 02:56:04;;;;;;;19.98;2.50;;;;;;;;;;5032426;28;20435;-63
2023/01/03 02:58:33;;;;;;;15.27;2.83;;;;;;;;;;5034193;28;20025;-63
2023/01/03 03:01:01;;;;;;;19.05;3.33;;;;;;;;;;5034441;28;20026;-63
2023/01/03 03:03:29;;;;;;;15.88;2.20;;;;;;;;;;5034338;28;20087;-63
2023/01/03 03:06:14;;;;;;;15.75;2.70;;;;;;;;;;5034284;28;20091;-63
2023/01/03 03:08:43;;;;;;;19.90;3.58;;;;;;;;;;5033796;28;20036;-63
2023/01/03 03:14:06;;;;;;;24.77;2.95;;;;;;;;;;5051770;28;20053;-63
2023/01/03 03:16:47;;;;;;;15.90;4.10;;;;;;;;;;5051462;28;20490;-63
2023/01/03 03:24:55;;;;;;;14.23;2.13;;;;;;;;;;5050549;28;20106;-63
2023/01/03 03:30:10;;;;;;;9.75;2.40;;;;;;;;;;5051408;28;20052;-63
2023/01/03 03:32:38;;;;;;;18.42;2.58;;;;;;;;;;5033401;28;20408;-63
2023/01/03 03:35:05;;;;;;;9.98;2.03;;;;;;;;;;5051179;28;20049;-63
2023/01/03 03:37:32;;;;;;;16.90;2.50;;;;;;;;;;5050816;28;20132;-63
2023/01/03 03:45:44;;;;;;;15.50;2.50;;;;;;;;;;5051338;28;20059;-63
2023/01/03 03:48:10;;;;;;;;;;;;;;;;;;5051980;28;20056;-63
2023/01/03 03:50:42;;;;;;;14.90;2.58;;;;;;;;;;5043772;28;19955;-64
2023/01/03 03:53:10;;;;;;;16.45;2.28;;;;;;;;;;5033229;28;20037;-63
2023/01/03 03:55:39;;;;;;;16.15;2.80;;;;;;;;;;5033208;28;20421;-63
2023/01/03 03:58:10;;;;;;;18.42;2.97;;;;;;;;;;5033468;28;20066;-63
2023/01/03 04:00:39;;;;;;;26.80;2.88;;;;;;;;;;5033237;28;20504;-64
2023/01/03 04:03:06;;;;;;;15.77;2.92;;;;;;;;;;5033162;28;20026;-64
2023/01/03 04:05:34;;;;;;;19.90;2.90;;;;;;;;;;5032921;28;20425;-65
2023/01/03 04:08:00;;;;;;;13.63;2.25;;;;;;;;;;5032997;28;20035;-65
2023/01/03 04:10:26;;;;;;;15.85;3.35;;;;;;;;;;5033154;28;20032;-65
2023/01/03 04:12:53;;;;;;;11.15;2.55;;;;;;;;;;5033115;28;20098;-66
2023/01/03 04:15:19;;;;;;;20.30;3.92;;;;;;;;;;5032352;28;20033;-66
2023/01/03 04:17:45;;;;;;;15.98;2.95;;;;;;;;;;5032715;28;20474;-66
2023/01/03 04:20:12;;;;;;;19.33;2.78;;;;;;;;;;5033053;28;20040;-66
2023/01/03 04:22:38;;;;;;;12.05;2.80;;;;;;;;;;5032513;28;20489;-66
2023/01/03 04:25:05;;;;;;;14.23;2.28;;;;;;;;;;5032820;28;20494;-66
2023/01/03 04:27:31;;;;;;;16.40;2.85;;;;;;;;;;5032891;28;20109;-66
2023/01/03 04:29:57;;;;;;;21.52;2.75;;;;;;;;;;5032851;28;20022;-66
2023/01/03 04:32:23;;;;;;;17.77;2.50;;;;;;;;;;5032828;28;20056;-66
2023/01/03 04:34:49;;;;;;;26.15;3.25;;;;;;;;;;5032553;28;20052;-66
2023/01/03 04:37:15;;;;;;;20.50;2.70;;;;;;;;;;5032896;28;20045;-66
2023/01/03 04:39:42;;;;;;;22.38;3.20;;;;;;;;;;5032437;28;20063;-66
2023/01/03 04:44:53;;;;;;;15.30;2.45;;;;;;;;;;5032125;28;20171;-66
2023/01/03 04:47:19;;;;;;;19.30;3.75;;;;;;;;;;5032811;28;20033;-66
2023/01/03 04:49:48;;;;;;;20.77;5.57;;;;;;;;;;5032133;28;20064;-66
2023/01/03 04:52:15;;;;;;;25.40;2.80;;;;;;;;;;5032701;28;20037;-66
2023/01/03 04:54:41;;;;;;;16.63;2.90;;;;;;;;;;5032370;28;20033;-66
2023/01/03 04:57:07;;;;;;;11.95;2.63;;;;;;;;;;5032673;28;20022;-66
2023/01/03 04:59:34;;;;;;;17.85;2.28;;;;;;;;;;5032445;28;20044;-66
2023/01/03 05:02:00;;;;;;;20.65;2.40;;;;;;;;;;5032600;28;20021;-66
2023/01/03 05:04:27;;;;;;;22.95;2.60;;;;;;;;;;5032075;28;20140;-66
2023/01/03 05:06:54;;;;;;;31.90;3.75;;;;;;;;;;5032514;28;20025;-66
2023/01/03 05:09:20;;;;;;;16.35;3.45;;;;;;;;;;5032700;28;20033;-66
2023/01/03 05:11:46;;;;;;;18.20;2.83;;;;;;;;;;5032478;28;20470;-66
2023/01/03 05:14:12;;;;;;;14.63;2.70;;;;;;;;;;5032544;28;20435;-66
2023/01/03 05:16:38;;;;;;;24.60;2.72;;;;;;;;;;5032106;28;20033;-66
2023/01/03 05:19:04;;;;;;;21.58;3.00;;;;;;;;;;5032209;28;20398;-66
2023/01/03 05:27:02;;;;;;;20.60;3.67;;;;;;;;;;5016609;28;20025;-66
2023/01/03 05:29:28;;;;;;;21.00;2.95;;;;;;;;;;5032308;28;20022;-66
2023/01/03 05:31:55;;;;;;;19.40;2.40;;;;;;;;;;5032285;28;20603;-66
2023/01/03 05:34:21;;;;;;;18.80;2.65;;;;;;;;;;5031969;28;20042;-66
2023/01/03 05:36:47;;;;;;;16.48;2.58;;;;;;;;;;5032189;28;20029;-66
2023/01/03 05:39:13;;;;;;;13.40;2.78;;;;;;;;;;5032343;28;20042;-66
2023/01/03 05:41:58;;;;;;;18.20;2.80;;;;;;;;;;5031709;28;20485;-66
2023/01/03 05:44:24;;;;;;;16.70;3.25;;;;;;;;;;5032140;28;20088;-66
2023/01/03 05:46:50;;;;;;;22.27;2.53;;;;;;;;;;5031959;28;20091;-66
2023/01/03 05:49:17;;;;;;;15.65;2.60;;;;;;;;;;5031880;28;20033;-66
2023/01/03 05:51:43;;;;;;;22.17;3.95;;;;;;;;;;5032011;28;20114;-66
2023/01/03 05:54:12;;;;;;;20.45;3.00;;;;;;;;;;5040303;28;20017;-66
2023/01/03 05:56:38;;;;;;;22.52;3.40;;;;;;;;;;5043036;28;20104;-66
2023/01/03 05:59:06;;;;;;;17.45;2.80;;;;;;;;;;5042728;28;20083;-66
2023/01/03 06:01:32;;;;;;;19.23;2.65;;;;;;;;;;5042694;28;20085;-66
2023/01/03 06:03:59;;;;;;;26.15;3.78;;;;;;;;;;5041834;28;20544;-66
2023/01/03 06:06:25;;;;;;;19.17;2.40;;;;;;;;;;5043628;28;20056;-66
2023/01/03 06:08:52;;;;;;;13.70;2.30;;;;;;;;;;5042691;28;20120;-66
2023/01/03 06:11:18;;;;;;;14.77;4.05;;;;;;;;;;5042460;28;20100;-66
2023/01/03 06:13:44;;;;;;;14.00;1.88;;;;;;;;;;5041722;28;20029;-66
2023/01/03 06:18:56;;;;;;;16.05;2.70;;;;;;;;;;5032566;28;20060;-66
2023/01/03 06:21:23;;;;;;;18.77;3.17;;;;;;;;;;5034659;28;20029;-68
2023/01/03 06:23:49;;;;;;;20.05;2.63;;;;;;;;;;5034259;28;20124;-67
2023/01/03 06:26:15;;;;;;;16.25;1.98;;;;;;;;;;5031902;28;20518;-67
2023/01/03 06:28:42;;;;;;;21.65;2.42;;;;;;;;;;5032008;28;20030;-67
2023/01/03 06:31:08;;;;;;;17.77;3.15;;;;;;;;;;5033285;28;20018;-67
2023/01/03 06:33:35;;;;;;;27.08;3.22;;;;;;;;;;5033493;28;20478;-66
2023/01/03 06:36:02;;;;;;;16.27;2.75;;;;;;;;;;5033586;28;20044;-66
2023/01/03 06:38:28;;;;;;;28.95;3.17;;;;;;;;;;5034258;28;20037;-65
2023/01/03 06:40:54;;;;;;;13.32;2.55;;;;;;;;;;5019403;28;20064;-65
2023/01/03 06:43:20;;;;;;;20.35;2.75;;;;;;;;;;5028041;28;20033;-66
2023/01/03 06:54:03;;;;;;;22.02;3.13;;;;;;;;;;5034288;28;20033;-67
2023/01/03 06:56:29;;;;;;;24.40;3.00;;;;;;;;;;5033466;28;20065;-67
2023/01/03 06:58:55;;;;;;;16.92;2.55;;;;;;;;;;5034283;28;20049;-67
2023/01/03 07:01:22;;;;;;;14.27;2.30;;;;;;;;;;5033152;28;20056;-67
2023/01/03 07:03:48;;;;;;;19.30;2.80;;;;;;;;;;5034385;28;20029;-67
2023/01/03 07:06:14;;;;;;;20.00;2.83;;;;;;;;;;5034228;28;20389;-67
2023/01/03 07:08:40;;;;;;;11.38;2.30;;;;;;;;;;5034141;28;20030;-67
2023/01/03 07:11:07;;;;;;;23.20;2.95;;;;;;;;;;5034262;28;20025;-67
2023/01/03 07:16:18;;;;;;;27.85;2.80;;;;;;;;;;5033983;28;20025;-66
2023/01/03 07:18:44;;;;;;;19.70;3.08;;;;;;;;;;5033850;28;20029;-66
2023/01/03 07:21:11;;;;;;;16.38;2.53;;;;;;;;;;5034212;28;20227;-66
2023/01/03 07:23:37;;;;;;;15.55;2.40;;;;;;;;;;5034293;28;20026;-66
2023/01/03 07:26:04;;;;;;;18.27;2.70;;;;;;;;;;5033674;28;20022;-66
2023/01/03 07:28:30;;;;;;;18.75;3.42;;;;;;;;;;5035725;28;20026;-66
2023/01/03 07:31:01;;;;;;;27.42;2.75;;;;;;;;;;5033542;28;20242;-67
2023/01/03 07:33:27;;;;;;;18.27;2.30;;;;;;;;;;5034059;28;20068;-67
2023/01/03 07:35:59;;;;;;;15.10;3.22;;;;;;;;;;5033555;28;20060;-67
2023/01/03 07:38:25;;;;;;;15.38;3.08;;;;;;;;;;5033742;28;20473;-67
2023/01/03 07:40:55;;;;;;;23.08;2.63;;;;;;;;;;5033662;28;20021;-67
2023/01/03 07:43:36;;;;;;;20.75;3.70;;;;;;;;;;5033462;28;20026;-67
2023/01/03 07:46:06;;;;;;;21.50;3.05;;;;;;;;;;5033180;28;20033;-67
2023/01/03 07:48:32;;;;;;;11.88;2.53;;;;;;;;;;5033455;28;20474;-67
2023/01/03 07:50:58;;;;;;;9.07;2.25;;;;;;;;;;5033272;28;20034;-67
2023/01/03 07:53:25;;;;;;;15.05;2.80;;;;;;;;;;5033520;28;20033;-67
2023/01/03 07:55:51;;;;;;;19.08;2.97;;;;;;;;;;5033380;28;20037;-67
2023/01/03 07:58:17;;;;;;;22.05;4.10;;;;;;;;;;5033183;28;20040;-67
2023/01/03 08:00:43;;;;;;;19.13;2.63;;;;;;;;;;5033274;28;20529;-67
2023/01/03 08:03:09;;;;;;;12.95;2.50;;;;;;;;;;5033071;28;20422;-67
2023/01/03 08:05:36;;;;;;;11.32;2.70;;;;;;;;;;5033350;28;20501;-67
2023/01/03 08:08:03;;;;;;;20.58;2.83;;;;;;;;;;5033168;28;20026;-67
2023/01/03 08:13:17;;;;;;;18.70;3.05;;;;;;;;;;5032615;28;20060;-67
2023/01/03 08:15:50;;;;;;;17.05;2.75;;;;;;;;;;5033085;28;20017;-67
2023/01/03 08:18:16;;;;;;;15.27;2.50;;;;;;;;;;5032626;28;20053;-67
2023/01/03 08:20:43;;;;;;;16.52;2.78;;;;;;;;;;5032941;28;20034;-67
2023/01/03 08:23:09;;;;;;;17.38;3.47;;;;;;;;;;5031620;28;20119;-67
2023/01/03 08:25:35;;;;;;;26.33;2.95;;;;;;;;;;5033002;28;20033;-67
2023/01/03 08:28:02;;;;;;;18.17;3.35;;;;;;;;;;5032359;28;20477;-67
2023/01/03 08:30:28;;;;;;;18.95;3.95;;;;;;;;;;5032932;28;20057;-67
2023/01/03 08:32:55;;;;;;;16.67;3.53;;;;;;;;;;5032886;28;20075;-67
2023/01/03 08:35:23;;;;;;;18.90;3.47;;;;;;;;;;5032669;28;20100;-67
2023/01/03 08:37:52;;;;;;;21.13;3.22;;;;;;;;;;5032825;28;20070;-67
2023/01/03 08:40:18;;;;;;;17.55;3.10;;;;;;;;;;5032755;28;20083;-67
2023/01/03 08:42:45;;;;;;;16.00;2.60;;;;;;;;;;5032365;28;20068;-67
2023/01/03 08:45:13;;;;;;;21.67;3.20;;;;;;;;;;5032464;28;20488;-67
2023/01/03 08:47:39;;;;;;;16.15;2.97;;;;;;;;;;5032833;28;20102;-67
2023/01/03 08:50:06;;;;;;;14.38;2.80;;;;;;;;;;5032592;28;20025;-67
2023/01/03 08:52:32;;;;;;;13.38;3.22;;;;;;;;;;5032456;28;20398;-67
2023/01/03 08:54:58;;;;;;;16.60;2.60;;;;;;;;;;5032733;28;20052;-67
2023/01/03 08:57:24;;;;;;;12.68;2.33;;;;;;;;;;5032299;28;20370;-67
2023/01/03 08:59:50;;;;;;;10.07;2.40;;;;;;;;;;5032336;28;20116;-67
2023/01/03 09:02:16;;;;;;;14.35;2.25;;;;;;;;;;5032413;28;20464;-67
2023/01/03 09:04:42;;;;;;;13.30;2.38;;;;;;;;;;5035213;28;20029;-67
2023/01/03 09:07:09;;;;;;;16.05;2.70;;;;;;;;;;5034429;28;20035;-67
2023/01/03 09:09:35;;;;;;;17.10;2.72;;;;;;;;;;5031854;28;20041;-67
2023/01/03 09:12:01;;;;;;;8.75;2.40;;;;;;;;;;5031945;28;20091;-67
2023/01/03 09:14:29;;;;;;;23.52;3.15;;;;;;;;;;5032481;28;20064;-67
2023/01/03 09:16:55;;;;;;;12.43;2.42;;;;;;;;;;5033880;28;20029;-66
2023/01/03 09:19:21;;;;;;;17.63;3.25;;;;;;;;;;5032426;28;20060;-66
2023/01/03 09:21:47;;;;;;;13.40;3.35;;;;;;;;;;5031965;28;20523;-66
2023/01/03 09:24:14;;;;;;;18.23;3.67;;;;;;;;;;5031462;28;20136;-66
2023/01/03 09:26:40;;;;;;;11.20;2.75;;;;;;;;;;5031777;28;20037;-66
2023/01/03 09:29:06;;;;;;;19.55;2.95;;;;;;;;;;5031701;28;20031;-66
2023/01/03 09:31:33;;;;;;;20.33;2.95;;;;;;;;;;5031350;28;20022;-66
2023/01/03 09:34:04;;;;;;;15.80;2.53;;;;;;;;;;5016038;28;20173;-66
2023/01/03 09:36:30;;;;;;;21.35;4.80;;;;;;;;;;5039123;28;20108;-66
2023/01/03 09:38:56;;;;;;;17.02;3.00;;;;;;;;;;5035204;28;20116;-66
2023/01/03 09:41:24;;;;;;;24.40;3.33;;;;;;;;;;5034656;28;20033;-66
2023/01/03 09:43:52;;;;;;;19.50;3.28;;;;;;;;;;5035679;28;20056;-66
2023/01/03 09:46:23;;;;;;;19.17;3.50;;;;;;;;;;5035049;28;20426;-66
2023/01/03 09:48:50;;;;;;;16.10;2.22;;;;;;;;;;5035627;28;20029;-66
2023/01/03 10:05:25;;;;;;;15.45;3.70;;;;;;;;;;5072816;28;20036;-66
2023/01/03 10:08:07;;;;;;;23.13;2.72;;;;;;;;;;5073332;28;20041;-66
2023/01/03 10:10:36;;;;;;;15.55;2.58;;;;;;;;;;5047510;28;20033;-67
2023/01/03 10:13:02;;;;;;;17.17;3.40;;;;;;;;;;5046390;28;20104;-67
2023/01/03 10:15:36;;;;;;;26.48;3.85;;;;;;;;;;5058467;28;20047;-67
2023/01/03 10:18:09;;;;;;;20.83;2.70;;;;;;;;;;5055679;28;20040;-67
2023/01/03 10:20:50;;;;;;;21.88;5.50;;;;;;;;;;5054738;28;20036;-67
2023/01/03 10:23:17;;;;;;;15.98;2.75;;;;;;;;;;5055043;28;20123;-67
2023/01/03 10:25:45;;;;;;;16.52;2.80;;;;;;;;;;5054022;28;20028;-67
2023/01/03 10:28:21;;;;;;;19.17;2.97;;;;;;;;;;5051082;28;20056;-67
2023/01/03 10:30:47;;;;;;;15.68;2.85;;;;;;;;;;5056485;28;20028;-67
2023/01/03 10:33:28;;;;;;;14.90;2.78;;;;;;;;;;5050407;28;20433;-67
2023/01/03 10:35:55;;;;;;;31.63;3.35;;;;;;;;;;5032601;28;20095;-67
2023/01/03 10:38:21;;;;;;;17.52;3.00;;;;;;;;;;5032497;28;20064;-67
2023/01/03 10:40:50;;;;;;;12.30;2.42;;;;;;;;;;5028158;28;20120;-67
2023/01/03 10:43:16;;;;;;;20.23;3.15;;;;;;;;;;5028906;28;20021;-67
2023/01/03 10:45:51;;;;;;;22.25;2.75;;;;;;;;;;5032906;28;20135;-67
2023/01/03 10:48:18;;;;;;;14.50;2.53;;;;;;;;;;5031831;28;20036;-67
2023/01/03 10:50:45;;;;;;;10.48;2.40;;;;;;;;;;5035168;28;20017;-67
2023/01/03 10:53:13;;;;;;;17.02;2.72;;;;;;;;;;5035171;28;20044;-67
2023/01/03 10:55:46;;;;;;;12.85;3.25;;;;;;;;;;5026798;28;20026;-67
2023/01/03 10:58:15;;;;;;;15.07;2.80;;;;;;;;;;5033888;28;20481;-67
2023/01/03 11:00:42;;;;;;;10.73;2.70;;;;;;;;;;5038528;28;20075;-67
2023/01/03 11:03:11;;;;;;;11.57;2.40;;;;;;;;;;5034729;28;20044;-67
2023/01/03 11:05:37;;;;;;;11.45;2.50;;;;;;;;;;5033088;28;20037;-67
2023/01/03 11:08:05;;;;;;;16.30;2.60;;;;;;;;;;5042977;28;20032;-67
2023/01/03 11:10:39;;;;;;;17.52;2.95;;;;;;;;;;5026246;28;20022;-67
2023/01/03 11:13:25;;;;;;;17.77;2.25;;;;;;;;;;5032861;28;20033;-67
2023/01/03 11:15:58;;;;;;;18.33;3.40;;;;;;;;;;5029642;28;20119;-67
2023/01/03 11:18:28;;;;;;;21.30;2.80;;;;;;;;;;5030451;28;20036;-67
2023/01/03 11:21:01;;;;;;;22.80;3.83;;;;;;;;;;5031989;28;20057;-67
2023/01/03 11:23:33;;;;;;;13.18;2.53;;;;;;;;;;5031508;28;20377;-67
2023/01/03 11:26:12;;;;;;;21.30;4.40;;;;;;;;;;5032203;28;20029;-67
2023/01/03 11:28:57;;;;;;;13.35;2.13;;;;;;;;;;5031952;28;20044;-67
2023/01/03 11:31:46;;;;;;;16.10;2.67;;;;;;;;;;5023123;28;20075;-67
2023/01/03 11:34:13;;;;;;;11.23;2.58;;;;;;;;;;5026831;28;20041;-67
2023/01/03 11:36:39;;;;;;;9.88;2.20;;;;;;;;;;5009222;28;20064;-67
2023/01/03 11:39:05;;;;;;;13.48;3.15;;;;;;;;;;5017915;28;20386;-67
2023/01/03 11:41:39;;;;;;;18.48;2.58;;;;;;;;;;5012955;28;20029;-67
2023/01/03 11:44:17;;;;;;;15.82;3.00;;;;;;;;;;5014444;28;20026;-67
2023/01/03 11:47:02;;;;;;;18.65;2.80;;;;;;;;;;4997059;28;20034;-67
2023/01/03 11:49:38;;;;;;;10.65;2.53;;;;;;;;;;4998527;28;20453;-67
2023/01/03 11:52:09;;;;;;;18.73;2.25;;;;;;;;;;5006699;28;20561;-67
2023/01/03 11:54:42;;;;;;;22.57;3.63;;;;;;;;;;5002189;28;20053;-67
2023/01/03 11:57:16;;;;;;;13.07;2.42;;;;;;;;;;4999910;28;20113;-67
2023/01/03 11:59:56;;;;;;;19.48;3.45;;;;;;;;;;4999596;28;20029;-67
2023/01/03 12:02:42;;;;;;;21.30;2.90;;;;;;;;;;4994347;28;20475;-67
2023/01/03 12:05:28;;;;;;;19.30;2.78;;;;;;;;;;4997738;28;20062;-67
2023/01/03 12:07:57;;;;;;;14.27;2.70;;;;;;;;;;5000619;28;20053;-67
2023/01/03 12:10:26;;;;;;;21.45;3.35;;;;;;;;;;5000125;28;20028;-67
2023/01/03 12:12:52;;;;;;;16.55;3.95;;;;;;;;;;5000113;28;20038;-67
2023/01/03 12:15:21;;;;;;;17.52;3.20;;;;;;;;;;5000629;28;20019;-67
2023/01/03 12:17:53;;;;;;;21.77;3.38;;;;;;;;;;5008509;28;20052;-67
2023/01/03 12:20:22;;;;;;;18.35;3.60;;;;;;;;;;4997861;28;20033;-67
2023/01/03 12:22:52;;;;;;;22.50;3.40;;;;;;;;;;5006345;28;20072;-67
2023/01/03 12:25:21;;;;;;;16.73;3.67;;;;;;;;;;4999633;28;20030;-67
2023/01/03 12:27:53;;;;;;;11.13;2.47;;;;;;;;;;4996943;28;20013;-67
2023/01/03 12:30:27;;;;;;;16.33;2.73;;;;;;;;;;4998461;28;20117;-67
2023/01/03 12:32:56;;;;;;;19.70;3.70;;;;;;;;;;5002240;28;20275;-67
2023/01/03 12:35:34;;;;;;;17.02;2.88;;;;;;;;;;4997663;28;20073;-67
2023/01/03 12:38:03;;;;;;;17.25;3.13;;;;;;;;;;5011535;28;20037;-67
2023/01/03 12:40:45;;;;;;;15.98;3.10;;;;;;;;;;5018067;28;20551;-68
2023/01/03 12:43:13;;;;;;;12.68;2.33;;;;;;;;;;5019725;28;20124;-67
2023/01/03 12:45:47;;;;;;;16.25;4.15;;;;;;;;;;5018801;28;20065;-67
2023/01/03 12:48:16;;;;;;;17.85;3.45;;;;;;;;;;5023660;28;20026;-67
2023/01/03 12:50:53;;;;;;;17.65;3.55;;;;;;;;;;5020675;28;20445;-67
2023/01/03 12:53:22;;;;;;;26.60;3.15;;;;;;;;;;5016639;28;20037;-67
2023/01/03 12:55:48;;;;;;;17.25;2.72;;;;;;;;;;5014420;28;20076;-67
2023/01/03 12:58:17;;;;;;;11.23;2.15;;;;;;;;;;5011426;28;20030;-67
2023/01/03 13:00:46;;;;;;;18.30;3.17;;;;;;;;;;5020467;28;20033;-67
2023/01/03 13:03:35;;;;;;;16.50;2.45;;;;;;;;;;5023756;28;20030;-68
2023/01/03 13:06:10;;;;;;;10.57;2.53;;;;;;;;;;5012642;28;20472;-67
2023/01/03 13:08:42;;;;;;;14.27;3.00;;;;;;;;;;5023692;28;20033;-68
2023/01/03 13:11:15;;;;;;;16.53;2.43;;;;;;;;;;5026917;28;20417;-67
2023/01/03 13:13:48;;;;;;;12.00;1.98;;;;;;;;;;5022461;28;20339;-67
2023/01/03 13:16:33;;;;;;;14.55;2.33;;;;;;;;;;5022866;28;20025;-67
2023/01/03 13:19:22;;;;;;;12.63;2.28;;;;;;;;;;5002629;28;20025;-67
2023/01/03 13:21:54;;;;;;;8.18;1.90;;;;;;;;;;5019676;28;20066;-67
2023/01/03 13:24:40;;;;;;;6.97;1.80;;;;;;;;;;5031674;28;20064;-67
2023/01/03 13:29:53;;;;;;;17.15;2.58;;;;;;;;;;5023644;28;20088;-67
2023/01/03 13:32:19;;;;;;;6.85;1.55;;;;;;;;;;5025087;28;20041;-67
2023/01/03 13:35:05;;;;;;;10.50;2.08;;;;;;;;;;5015574;28;20622;-67
2023/01/03 13:37:31;;;;;;;11.20;1.58;;;;;;;;;;5013885;28;20068;-67
2023/01/03 13:40:00;;;;;;;5.93;1.42;;;;;;;;;;5011087;28;20070;-67
2023/01/03 13:42:27;;;;;;;4.55;1.30;;;;;;;;;;5025643;28;20044;-66
2023/01/03 13:45:12;;;;;;;7.38;1.75;;;;;;;;;;5027338;28;20076;-66
2023/01/03 13:47:41;;;;;;;7.00;1.90;;;;;;;;;;5024293;28;20363;-66
2023/01/03 13:50:24;;;;;;;11.85;2.42;;;;;;;;;;5022526;28;20064;-66
2023/01/03 13:52:50;;;;;;;;;;;;;;;;;;5022044;28;20046;-66
2023/01/03 13:55:39;;;;;;;6.25;1.20;;;;;;;;;;5033254;28;19909;-66
2023/01/03 13:58:26;;;;;;;3.83;1.33;;;;;;;;;;5028646;28;20467;-66
2023/01/03 14:00:56;;;;;;;7.80;1.60;;;;;;;;;;5035465;28;20478;-66
2023/01/03 14:03:25;;;;;;;4.90;1.65;;;;;;;;;;5012956;28;20080;-66
2023/01/03 14:06:08;;;;;;;7.88;2.38;;;;;;;;;;5015341;28;20026;-66
2023/01/03 14:08:54;;;;;;;4.03;1.10;;;;;;;;;;5015935;28;20367;-66
2023/01/03 14:11:44;;;;;;;4.25;1.25;;;;;;;;;;5015667;28;20038;-66
2023/01/03 14:14:11;;;;;;;5.75;1.63;;;;;;;;;;5013150;28;20042;-66
2023/01/03 14:16:43;;;;;;;8.20;1.38;;;;;;;;;;5011280;28;20044;-66
2023/01/03 14:19:18;;;;;;;8.63;1.33;;;;;;;;;;4996897;28;20096;-66
2023/01/03 14:21:52;;;;;;;6.38;0.82;;;;;;;;;;4994033;28;20061;-66
2023/01/03 14:24:21;;;;;;;4.13;1.60;;;;;;;;;;4993543;28;20043;-66
2023/01/03 14:26:48;;;;;;;6.50;1.38;;;;;;;;;;4993886;28;20096;-66
2023/01/03 14:29:17;;;;;;;6.57;0.90;;;;;;;;;;4993582;28;20022;-66
2023/01/03 14:31:45;;;;;;;7.25;1.20;;;;;;;;;;4993563;28;20443;-66
2023/01/03 14:34:35;;;;;;;5.88;1.83;;;;;;;;;;4998462;28;20054;-66
2023/01/03 14:37:02;;;;;;;5.43;0.95;;;;;;;;;;5016063;28;20460;-67
2023/01/03 14:39:31;;;;;;;3.97;0.88;;;;;;;;;;5031896;28;20049;-67
2023/01/03 14:41:58;;;;;;;3.70;0.95;;;;;;;;;;5041603;28;20036;-67
2023/01/03 14:44:25;;;;;;;4.78;0.80;;;;;;;;;;5040832;28;20048;-67
2023/01/03 14:47:11;;;;;;;4.05;1.10;;;;;;;;;;5038884;28;20029;-67
2023/01/03 14:49:42;;;;;;;5.97;1.00;;;;;;;;;;5043290;28;20028;-67
2023/01/03 14:52:14;;;;;;;4.82;1.17;;;;;;;;;;5043376;28;20532;-67
2023/01/03 14:54:43;;;;;;;2.95;0.95;;;;;;;;;;5043167;28;20036;-67
2023/01/03 14:57:15;;;;;;;4.78;1.10;;;;;;;;;;5042299;28;20108;-67
2023/01/03 14:59:41;;;;;;;8.45;1.85;;;;;;;;;;5036646;28;20409;-67
2023/01/03 15:02:10;;;;;;;5.72;1.50;;;;;;;;;;5041638;28;20100;-67
2023/01/03 15:04:42;;;;;;;3.05;1.45;;;;;;;;;;5044314;28;20409;-67
2023/01/03 15:07:23;;;;;;;7.70;1.98;;;;;;;;;;5042031;28;20453;-67
2023/01/03 15:09:51;;;;;;;5.43;1.10;;;;;;;;;;5041427;28;20029;-67
2023/01/03 15:12:18;;;;;;;3.92;1.05;;;;;;;;;;5039495;28;20149;-67
2023/01/03 15:14:44;;;;;;;7.50;1.65;;;;;;;;;;5042989;28;20060;-67
2023/01/03 15:17:10;;;;;;;9.30;1.58;;;;;;;;;;5035144;28;20104;-67
2023/01/03 15:19:38;;;;;;;8.23;1.35;;;;;;;;;;5039540;28;20041;-67
2023/01/03 15:22:15;;;;;;;8.02;1.70;;;;;;;;;;5036455;28;20025;-67
2023/01/03 15:24:42;;;;;;;4.43;1.50;;;;;;;;;;5037693;28;20029;-67
2023/01/03 15:27:27;;;;;;;5.85;1.42;;;;;;;;;;5032838;28;20037;-66
2023/01/03 15:29:54;;;;;;;5.47;1.40;;;;;;;;;;5032989;28;20091;-66
2023/01/03 15:32:20;;;;;;;5.20;1.45;;;;;;;;;;5026558;28;20148;-66
2023/01/03 15:34:49;;;;;;;3.55;1.20;;;;;;;;;;5020949;28;20140;-66
2023/01/03 15:37:19;;;;;;;4.72;1.25;;;;;;;;;;5033545;28;20118;-67
2023/01/03 15:39:46;;;;;;;5.18;1.25;;;;;;;;;;5030273;28;20036;-67
2023/01/03 15:45:21;;;;;;;4.40;1.42;;;;;;;;;;5033315;28;20060;-67
2023/01/03 15:47:48;;;;;;;5.72;1.73;;;;;;;;;;5038422;28;20392;-67
2023/01/03 15:50:17;;;;;;;8.02;1.70;;;;;;;;;;5037809;28;20391;-67
2023/01/03 15:52:43;;;;;;;6.75;2.50;;;;;;;;;;5041215;28;20012;-67
2023/01/03 15:55:12;;;;;;;7.22;2.50;;;;;;;;;;5042438;28;20025;-67
2023/01/03 15:57:38;;;;;;;7.32;2.33;;;;;;;;;;5033777;28;20375;-67